Somerville, MA (02145)

4:40 PM EST on February 27, 2015 (GMT -0500)
Medford | Change Station
CLOSE
Current Station
Personal Weather Station
Location: Medford, MA
Elevation: 39 ft
Nearby Weather Stations

Elev 39 ft 42.40 °N, 71.11 °W | Updated 3 seconds ago

Partly Cloudy
Partly Cloudy
27.8 °F
Feels Like 28 °F
N
1.0
Wind Variable Wind from NNW
Gusts 1.0 mph

Today
High -- | Low -- °F
--% Chance of Precip.
Yesterday
High -- | Low -- °F
Precip. -- in
6:23 AM 5:31 PM
Waxing Gibbous, 72% visible
Pressure 30.36 in
Visibility 10.0 miles
Clouds Few 3500 ft
Scattered Clouds 25000 ft
Windchill 28 °F
Dew Point 0 °F
Humidity 30%
Rainfall 0.00 in
Snow Depth Not available.
UV 1 out of 12
Pollen .40 out of 12
Air Quality Not available.
Flu Activity Not available.
METAR KBOS 272054Z VRB03KT 10SM FEW035 SCT250 M03/M19 A3036 RMK AO2 SLP279 T10281189 53006

More Conditions Fewer Conditions

Pressure 30.36 in
Visibility 10.0 miles
Clouds Few 3500 ft
Scattered Clouds 25000 ft
Windchill 28 °F
Dew Point 0 °F
Humidity 30%
Rainfall 0.00 in
Snow Depth Not available.
UV 1 out of 12
Pollen .40 out of 12
Air Quality Not available.
Flu Activity Not available.
METAR KBOS 272054Z VRB03KT 10SM FEW035 SCT250 M03/M19 A3036 RMK AO2 SLP279 T10281189 53006

More Conditions Fewer Conditions

10-Day Weather Forecast

Almanac

Astronomy

Feb. 27, 2015 Rise Set
Actual Time
Civil Twilight
Nautical Twilight
Astronomical Twilight
Moon
Length of Visible Light
Length of Day
Tomorrow will be .
, % of the Moon is Illuminated

Today's Extremes

State Highs State Lows

Community

WunderPhotos

Upload Photos

1,800,844 photos uploaded!

WunderBlogs® & News

Nearby

Air Quality

  Air Quality AQ Index Pollutant
Not available.

Snow Depth

Station Depth Elevation

Earthquake Activity

City Distance Mag. Time & Date
Minimum magnitude displayed is 2.5.

Coastal Water Temperatures

Place Temperature

Nearby Weather Stations